createdAt,value
2018-02-25T00:01:23.386Z,7.62
2018-02-25T00:03:51.202Z,8.77
2018-02-25T00:06:19.198Z,8.23
2018-02-25T00:08:46.984Z,7.55
2018-02-25T00:11:14.744Z,8.55
2018-02-25T00:13:42.643Z,6.95
2018-02-25T00:16:11.060Z,8.02
2018-02-25T00:18:39.256Z,8.32
2018-02-25T00:21:07.430Z,6.95
2018-02-25T00:23:35.295Z,8.68
2018-02-25T00:26:03.068Z,9.00
2018-02-25T00:28:31.323Z,8.23
2018-02-25T00:30:59.458Z,9.38
2018-02-25T00:33:27.199Z,7.28
2018-02-25T00:35:55.671Z,7.75
2018-02-25T00:38:23.624Z,9.00
2018-02-25T00:40:51.485Z,9.65
2018-02-25T00:43:19.425Z,8.38
2018-02-25T00:45:47.179Z,8.57
2018-02-25T00:48:14.960Z,7.80
2018-02-25T00:50:42.552Z,7.10
2018-02-25T00:53:10.299Z,6.95
2018-02-25T00:55:38.145Z,8.52
2018-02-25T00:58:06.196Z,9.20
2018-02-25T01:00:34.050Z,8.45
2018-02-25T01:03:04.512Z,7.25
2018-02-25T01:05:33.680Z,7.00
2018-02-25T01:08:02.287Z,6.95
2018-02-25T01:10:30.466Z,7.45
2018-02-25T01:12:58.154Z,7.53
2018-02-25T01:15:25.881Z,7.10
2018-02-25T01:17:53.613Z,9.27
2018-02-25T01:20:21.357Z,7.18
2018-02-25T01:22:48.981Z,7.03
2018-02-25T01:25:16.728Z,7.37
2018-02-25T01:27:44.514Z,7.28
2018-02-25T01:30:12.152Z,8.10
2018-02-25T01:32:40.492Z,7.95
2018-02-25T01:35:09.392Z,6.87
2018-02-25T01:37:37.015Z,8.48
2018-02-25T01:40:04.769Z,6.85
2018-02-25T01:42:32.572Z,7.65
2018-02-25T01:45:01.404Z,7.62
2018-02-25T01:47:30.321Z,7.87
2018-02-25T01:49:58.167Z,7.28
2018-02-25T01:52:26.724Z,7.37
2018-02-25T01:54:54.494Z,8.57
2018-02-25T01:57:22.947Z,7.32
2018-02-25T01:59:51.334Z,7.05
2018-02-25T02:02:19.135Z,7.15
2018-02-25T02:04:47.587Z,7.93
2018-02-25T02:07:15.818Z,6.90
2018-02-25T02:09:43.514Z,7.85
2018-02-25T02:12:13.654Z,7.70
2018-02-25T02:14:41.475Z,7.15
2018-02-25T02:17:10.768Z,7.32
2018-02-25T02:19:38.392Z,7.93
2018-02-25T02:22:07.161Z,8.63
2018-02-25T02:24:35.234Z,7.05
2018-02-25T02:27:02.991Z,9.20
2018-02-25T02:29:31.053Z,7.60
2018-02-25T02:31:59.100Z,7.87
2018-02-25T02:34:26.826Z,7.70
2018-02-25T02:36:54.505Z,7.82
2018-02-25T02:39:22.273Z,8.30
2018-02-25T12:28:23.793Z,6.97
2018-02-25T12:30:51.539Z,7.70
2018-02-25T12:33:19.156Z,6.63
2018-02-25T12:35:46.739Z,8.38
2018-02-25T12:38:14.326Z,7.22
2018-02-25T12:40:42.031Z,6.87
2018-02-25T12:43:09.705Z,6.97
2018-02-25T12:45:37.270Z,8.20
2018-02-25T12:48:04.847Z,6.90
2018-02-25T12:50:32.403Z,6.47
2018-02-25T12:53:00.278Z,7.20
2018-02-25T12:55:27.970Z,5.75
2018-02-25T12:57:56.325Z,6.95
2018-02-25T13:00:23.976Z,5.50
2018-02-25T13:02:51.549Z,6.25
2018-02-25T13:05:19.145Z,5.87
2018-02-25T13:07:47.459Z,4.80
2018-02-25T13:10:15.064Z,5.03
2018-02-25T13:12:42.663Z,5.20
2018-02-25T13:15:10.243Z,4.97
2018-02-25T13:17:37.807Z,4.97
2018-02-25T13:20:05.420Z,5.67
2018-02-25T13:22:33.808Z,5.60
2018-02-25T13:25:01.408Z,6.30
2018-02-25T13:27:28.994Z,5.63
2018-02-25T13:29:56.557Z,5.57
2018-02-25T13:32:24.158Z,5.75
2018-02-25T13:34:51.718Z,6.20
2018-02-25T13:37:20.033Z,5.57
2018-02-25T13:39:47.599Z,4.63
2018-02-25T13:42:15.140Z,5.87
2018-02-25T13:44:42.728Z,6.27
2018-02-25T13:47:10.297Z,6.10
2018-02-25T13:49:37.916Z,6.93
2018-02-25T13:52:05.488Z,5.43
2018-02-25T13:54:33.061Z,5.03
2018-02-25T13:57:00.649Z,4.97
2018-02-25T13:59:28.982Z,4.93
2018-02-25T14:01:56.525Z,5.33
2018-02-25T14:04:24.087Z,5.07
2018-02-25T14:06:51.651Z,4.93
2018-02-25T14:09:19.238Z,5.50
2018-02-25T14:11:46.835Z,4.60
2018-02-25T14:14:14.462Z,6.07
2018-02-25T14:16:42.057Z,4.40
2018-02-25T14:19:10.454Z,5.37
2018-02-25T14:21:38.009Z,5.13
2018-02-25T14:24:05.609Z,5.45
2018-02-25T14:26:33.189Z,5.50
2018-02-25T14:29:00.748Z,6.00
2018-02-25T14:31:28.345Z,4.80
2018-02-25T14:33:55.914Z,5.35
2018-02-25T14:36:23.463Z,4.68
2018-02-25T14:38:51.078Z,4.30
2018-02-25T14:41:18.641Z,4.22
2018-02-25T14:43:46.225Z,5.07
2018-02-25T14:46:14.545Z,3.80
2018-02-25T14:48:42.155Z,4.00
2018-02-25T14:51:09.723Z,4.47
2018-02-25T14:53:37.332Z,4.20
2018-02-25T14:56:04.905Z,5.50
2018-02-25T14:58:32.480Z,4.90
2018-02-25T15:01:00.058Z,4.60
2018-02-25T15:03:27.634Z,3.60
2018-02-25T15:05:55.987Z,3.50
2018-02-25T15:08:23.584Z,4.40
2018-02-25T15:10:51.158Z,3.97
2018-02-25T15:13:18.740Z,4.45
2018-02-25T15:15:46.339Z,4.30
2018-02-25T15:18:13.907Z,4.18
2018-02-25T15:20:42.293Z,4.85
2018-02-25T15:23:10.611Z,3.90
2018-02-25T15:25:38.195Z,4.80
2018-02-25T15:28:05.770Z,4.82
2018-02-25T15:30:34.128Z,5.28
2018-02-25T15:33:01.692Z,4.45
2018-02-25T15:35:29.293Z,4.30
2018-02-25T15:37:57.622Z,4.25
2018-02-25T15:40:25.189Z,6.50
2018-02-25T15:42:52.756Z,4.62
2018-02-25T15:45:20.333Z,4.60
2018-02-25T15:47:48.662Z,5.40
2018-02-25T15:50:16.235Z,5.93
2018-02-25T15:52:44.544Z,5.33
2018-02-25T15:55:12.135Z,4.80
2018-02-25T15:57:39.690Z,6.00
2018-02-25T16:00:07.342Z,5.50
2018-02-25T16:02:35.739Z,5.55
2018-02-25T16:05:03.299Z,5.53
2018-02-25T16:07:30.870Z,5.45
2018-02-25T16:09:58.431Z,6.65
2018-02-25T16:12:25.999Z,5.25
2018-02-25T16:14:53.584Z,5.15
2018-02-25T16:17:21.188Z,7.22
2018-02-25T16:19:49.517Z,5.45
2018-02-25T16:22:17.093Z,6.12
2018-02-25T16:24:44.680Z,5.78
2018-02-25T16:27:13.004Z,5.53
2018-02-25T16:29:40.601Z,6.85
2018-02-25T16:32:08.162Z,7.95
2018-02-25T16:34:35.776Z,6.28
2018-02-25T16:37:03.387Z,7.87
2018-02-25T16:39:31.715Z,9.27
2018-02-25T16:41:59.300Z,7.05
2018-02-25T16:44:26.895Z,7.25
2018-02-25T16:46:55.254Z,5.97
2018-02-25T16:49:22.849Z,6.75
2018-02-25T16:51:50.422Z,7.10
2018-02-25T16:54:17.990Z,8.50
2018-02-25T16:56:45.576Z,7.40
2018-02-25T16:59:13.137Z,8.15
2018-02-25T17:01:40.711Z,7.90
2018-02-25T17:04:08.275Z,6.65
2018-02-25T17:06:35.877Z,6.70
2018-02-25T17:09:03.448Z,6.62
2018-02-25T17:11:31.118Z,7.10
2018-02-25T17:13:58.696Z,6.12
2018-02-25T20:04:06.354Z,5.68
2018-02-25T20:06:34.828Z,5.80
2018-02-25T20:18:17.708Z,5.78
2018-02-25T20:33:02.567Z,5.75
2018-02-25T20:35:39.669Z,5.22
2018-02-25T20:38:08.511Z,5.87
2018-02-25T20:40:52.827Z,5.15
2018-02-25T20:55:53.763Z,6.07
2018-02-25T20:58:40.308Z,8.10
2018-02-25T21:01:12.151Z,11.43
2018-02-25T21:03:41.316Z,7.07
2018-02-25T21:06:09.999Z,7.45
2018-02-25T21:08:40.081Z,6.50
2018-02-25T21:11:09.088Z,4.65
2018-02-25T21:13:36.912Z,5.95
2018-02-25T21:18:49.796Z,6.40
2018-02-25T21:21:25.086Z,7.50
2018-02-25T21:26:50.552Z,8.70
2018-02-25T21:29:20.406Z,5.70
2018-02-25T21:31:54.899Z,8.63
2018-02-25T21:34:22.812Z,5.80
2018-02-25T21:36:52.056Z,7.47
2018-02-25T21:39:20.276Z,7.45
2018-02-25T21:41:48.631Z,7.55
2018-02-25T21:44:16.549Z,5.28
2018-02-25T21:46:47.915Z,6.28
2018-02-25T21:49:16.625Z,6.85
2018-02-25T21:51:47.124Z,6.57
2018-02-25T21:54:22.054Z,7.40
2018-02-25T21:57:01.722Z,6.10
2018-02-25T21:59:42.062Z,6.60
2018-02-25T22:04:56.882Z,8.93
2018-02-25T22:07:25.436Z,7.87
2018-02-25T22:09:53.533Z,7.15
2018-02-25T22:12:23.948Z,6.22
2018-02-25T22:14:54.171Z,6.35
2018-02-25T22:17:28.543Z,5.32
2018-02-25T22:19:57.279Z,5.90
2018-02-25T22:22:27.030Z,4.97
2018-02-25T22:27:53.393Z,6.62
2018-02-25T22:30:22.591Z,5.60
2018-02-25T22:32:50.855Z,6.15
2018-02-25T22:35:22.377Z,8.75
2018-02-25T22:37:53.924Z,5.70
2018-02-25T22:40:22.620Z,6.55
2018-02-25T22:42:51.653Z,5.45
2018-02-25T22:45:20.931Z,7.65
2018-02-25T22:47:49.446Z,6.37
2018-02-25T22:50:21.060Z,7.55
2018-02-25T22:52:51.156Z,6.70
2018-02-25T22:55:23.049Z,6.43
2018-02-25T22:57:53.115Z,6.00
2018-02-25T23:00:24.403Z,6.55
2018-02-25T23:02:54.618Z,6.20
2018-02-25T23:05:23.925Z,6.20
2018-02-25T23:07:53.739Z,6.55
2018-02-25T23:10:21.864Z,6.93
2018-02-25T23:12:50.167Z,5.45
2018-02-25T23:15:20.128Z,5.78
2018-02-25T23:17:50.970Z,6.15
2018-02-25T23:20:20.108Z,6.18
2018-02-25T23:22:54.406Z,5.97
2018-02-25T23:25:29.520Z,6.32
2018-02-25T23:28:00.716Z,6.35
2018-02-25T23:30:31.365Z,6.25
2018-02-25T23:33:00.627Z,6.25
2018-02-25T23:35:28.689Z,5.78
2018-02-25T23:37:57.843Z,6.70
2018-02-25T23:40:28.178Z,6.30
2018-02-25T23:42:57.555Z,5.50
2018-02-25T23:45:34.585Z,6.15
2018-02-25T23:48:04.240Z,6.70
2018-02-25T23:50:32.326Z,6.72
2018-02-25T23:53:00.181Z,5.53
2018-02-25T23:55:27.923Z,6.35
2018-02-25T23:57:56.241Z,5.87
